Coe Leni — A8VR8 — position and weather

sailwx.info

Track history (hours):
 
Tides and Currents Weather Stations Pressure Air Temp Water Temp Dewpoint Dewpoint Depression Visibility Wind Speed Wind Dir Waves Ship Positions

Coe Leni

Last reported at 2017-Jun-24 23:30 UTC. Time now 2017-Jun-25 00:17 UTC.
Position N 51°27' E 003°42'.

Length 138 m; draft 7.2 m.

Type: Cargo ship. MMSI: 636092036.

Date/timePositionNaut miles runAvg speedWind from/ knotsBaromVisibWave heightAir tempDewpointWater temp
2017-Jun-24 23:30N 51°27' E 003°42'0 0.0
2017-Jun-24 22:30N 51°27' E 003°42'0 0.0
2017-Jun-24 20:00N 51°27' E 003°42'0 0.0
2017-Jun-24 19:24N 51°27' E 003°42'0 0.0
2017-Jun-24 17:12N 51°27' E 003°42'0 0.0
2017-Jun-24 16:42N 51°27' E 003°42'0 0.0
2017-Jun-24 16:06N 51°27' E 003°42'0 0.0
2017-Jun-24 16:00N 51°27' E 003°42'0 0.0
2017-Jun-24 13:48N 51°27' E 003°42'0 0.0
2017-Jun-24 10:06N 51°27' E 003°42'0 0.0
2017-Jun-24 09:12N 51°27' E 003°42'0 0.0
2017-Jun-24 06:36N 51°27' E 003°42'0 0.0
2017-Jun-23 22:42N 51°27' E 003°42'0 0.0
2017-Jun-23 22:24N 51°27' E 003°42'0 0.0
2017-Jun-23 22:00N 51°27' E 003°42'0 0.0
2017-Jun-23 21:30N 51°27' E 003°42'0 0.9
2017-Jun-23 21:00N 51°27' E 003°43'2 3.8
2017-Jun-23 20:29N 51°26' E 003°40'612.8
2017-Jun-23 20:00N 51°25' E 003°30'714.0
2017-Jun-23 19:30N 51°24' E 003°19'713.2
2017-Jun-23 19:00N 51°24' E 003°08'612.8
2017-Jun-23 18:30N 51°23' E 002°58'713.5
2017-Jun-23 18:00N 51°22' E 002°48'611.9
2017-Jun-23 17:30N 51°22' E 002°38'612.9
2017-Jun-23 17:00N 51°21' E 002°28'511.0
2017-Jun-23 16:30N 51°19' E 002°20'611.3
2017-Jun-23 16:00N 51°16' E 002°12'611.4
2017-Jun-23 15:30N 51°13' E 002°04'611.2
2017-Jun-23 15:00N 51°10' E 001°57'1211.6
2017-Jun-23 14:01N 51°03' E 001°43'612.3
2017-Jun-23 13:30N 50°58' E 001°36'613.1
2017-Jun-23 13:01N 50°53' E 001°30'5613.5
2017-Jun-23 08:51N 50°21' E 000°17'515.7
2017-Jun-23 08:30N 50°20' E 000°09'1016.3
2017-Jun-23 07:55N 50°17' W 000°06'5916.3
2017-Jun-23 04:16N 50°02' W 001°36'414.4
2017-Jun-23 04:00N 50°02' W 001°42'713.8
2017-Jun-23 03:28N 49°60' W 001°53'613.0
2017-Jun-23 03:01N 49°58' W 002°02'2111.7
2017-Jun-23 01:13N 49°53' W 002°33'311.2
2017-Jun-23 00:59N 49°52' W 002°37'511.2
2017-Jun-23 00:30N 49°50' W 002°45'611.2
2017-Jun-23 00:00N 49°49' W 002°53'611.4
2017-Jun-22 23:27N 49°47' W 003°03'511.6
2017-Jun-22 23:00N 49°45' W 003°10'611.8
2017-Jun-22 22:30N 49°42' W 003°18'612.2
2017-Jun-22 21:58N 49°40' W 003°27'612.3
2017-Jun-22 21:30N 49°38' W 003°36'1212.7
2017-Jun-22 20:33N 49°36' W 003°54'113.1
2017-Jun-22 20:28N 49°36' W 003°56'  
Track history (hours):
 
Tides and Currents Weather Stations Pressure Air Temp Water Temp Dewpoint Dewpoint Depression Visibility Wind Speed Wind Dir Waves Ship Positions

Coe Leni

Last reported at 2017-Jun-24 23:30 UTC. Time now 2017-Jun-25 00:17 UTC.
Position N 51°27' E 003°42'.

Length 138 m; draft 7.2 m.

Type: Cargo ship. MMSI: 636092036.

Date/timePositionNaut miles runAvg speedWind from/ knotsBaromVisibWave heightAir tempDewpointWater temp
2017-Jun-24 23:30N 51°27' E 003°42'0 0.0
2017-Jun-24 22:30N 51°27' E 003°42'0 0.0
2017-Jun-24 20:00N 51°27' E 003°42'0 0.0
2017-Jun-24 19:24N 51°27' E 003°42'0 0.0
2017-Jun-24 17:12N 51°27' E 003°42'0 0.0
2017-Jun-24 16:42N 51°27' E 003°42'0 0.0
2017-Jun-24 16:06N 51°27' E 003°42'0 0.0
2017-Jun-24 16:00N 51°27' E 003°42'0 0.0
2017-Jun-24 13:48N 51°27' E 003°42'0 0.0
2017-Jun-24 10:06N 51°27' E 003°42'0 0.0
2017-Jun-24 09:12N 51°27' E 003°42'0 0.0
2017-Jun-24 06:36N 51°27' E 003°42'0 0.0
2017-Jun-23 22:42N 51°27' E 003°42'0 0.0
2017-Jun-23 22:24N 51°27' E 003°42'0 0.0
2017-Jun-23 22:00N 51°27' E 003°42'0 0.0
2017-Jun-23 21:30N 51°27' E 003°42'0 0.9
2017-Jun-23 21:00N 51°27' E 003°43'2 3.8
2017-Jun-23 20:29N 51°26' E 003°40'612.8
2017-Jun-23 20:00N 51°25' E 003°30'714.0
2017-Jun-23 19:30N 51°24' E 003°19'713.2
2017-Jun-23 19:00N 51°24' E 003°08'612.8
2017-Jun-23 18:30N 51°23' E 002°58'713.5
2017-Jun-23 18:00N 51°22' E 002°48'611.9
2017-Jun-23 17:30N 51°22' E 002°38'612.9
2017-Jun-23 17:00N 51°21' E 002°28'511.0
2017-Jun-23 16:30N 51°19' E 002°20'611.3
2017-Jun-23 16:00N 51°16' E 002°12'611.4
2017-Jun-23 15:30N 51°13' E 002°04'611.2
2017-Jun-23 15:00N 51°10' E 001°57'1211.6
2017-Jun-23 14:01N 51°03' E 001°43'612.3
2017-Jun-23 13:30N 50°58' E 001°36'613.1
2017-Jun-23 13:01N 50°53' E 001°30'5613.5
2017-Jun-23 08:51N 50°21' E 000°17'515.7
2017-Jun-23 08:30N 50°20' E 000°09'1016.3
2017-Jun-23 07:55N 50°17' W 000°06'5916.3
2017-Jun-23 04:16N 50°02' W 001°36'414.4
2017-Jun-23 04:00N 50°02' W 001°42'713.8
2017-Jun-23 03:28N 49°60' W 001°53'613.0
2017-Jun-23 03:01N 49°58' W 002°02'2111.7
2017-Jun-23 01:13N 49°53' W 002°33'311.2
2017-Jun-23 00:59N 49°52' W 002°37'511.2
2017-Jun-23 00:30N 49°50' W 002°45'611.2
2017-Jun-23 00:00N 49°49' W 002°53'611.4
2017-Jun-22 23:27N 49°47' W 003°03'511.6
2017-Jun-22 23:00N 49°45' W 003°10'611.8
2017-Jun-22 22:30N 49°42' W 003°18'612.2
2017-Jun-22 21:58N 49°40' W 003°27'612.3
2017-Jun-22 21:30N 49°38' W 003°36'1212.7
2017-Jun-22 20:33N 49°36' W 003°54'113.1
2017-Jun-22 20:28N 49°36' W 003°56'  

Dump ship's entire track history